createdAt,value
2022-10-03T00:01:33.463Z,98003.30
2022-10-03T00:04:47.846Z,98004.96
2022-10-03T00:08:01.641Z,98005.89
2022-10-03T00:11:09.214Z,98004.35
2022-10-03T00:14:25.894Z,98005.20
2022-10-03T00:17:42.311Z,98001.13
2022-10-03T00:21:08.233Z,97995.23
2022-10-03T00:24:24.780Z,97995.52
2022-10-03T00:28:06.864Z,97987.43
2022-10-03T00:31:12.732Z,97988.54
2022-10-03T00:34:32.016Z,97991.23
2022-10-03T00:37:40.714Z,97989.44
2022-10-03T00:41:12.256Z,97986.84
2022-10-03T00:44:37.691Z,97986.52
2022-10-03T00:47:47.518Z,97982.14
2022-10-03T00:51:17.301Z,97977.27
2022-10-03T00:54:37.334Z,97979.70
2022-10-03T00:57:50.651Z,97974.05
2022-10-03T01:01:02.584Z,97969.54
2022-10-03T01:04:15.468Z,97973.78
2022-10-03T01:07:48.129Z,97979.67
2022-10-03T01:11:11.407Z,97974.73
2022-10-03T01:14:24.863Z,97972.45
2022-10-03T01:18:14.395Z,97971.67
2022-10-03T01:21:45.591Z,97972.61
2022-10-03T01:24:50.966Z,97974.04
2022-10-03T01:28:39.105Z,97970.96
2022-10-03T01:31:49.707Z,97970.36
2022-10-03T01:35:06.424Z,97972.48
2022-10-03T01:38:21.856Z,97968.00
2022-10-03T01:41:23.330Z,97962.35
2022-10-03T01:44:44.152Z,97961.08
2022-10-03T01:47:54.836Z,97961.86
2022-10-03T01:51:16.186Z,97962.86
2022-10-03T01:54:42.458Z,97960.66
2022-10-03T01:58:03.278Z,97957.68
2022-10-03T02:01:42.239Z,97962.73
2022-10-03T02:04:49.952Z,97959.52
2022-10-03T02:08:05.158Z,97954.80
2022-10-03T02:11:09.309Z,97953.93
2022-10-03T02:14:22.589Z,97953.92
2022-10-03T02:17:45.378Z,97954.89
2022-10-03T02:21:07.571Z,97962.67
2022-10-03T02:24:14.989Z,97969.13
2022-10-03T02:27:35.217Z,97970.77
2022-10-03T02:30:55.761Z,97968.35
2022-10-03T02:34:24.131Z,97965.52
2022-10-03T02:37:34.710Z,97967.73
2022-10-03T02:41:01.008Z,97974.20
2022-10-03T02:44:17.723Z,97979.55
2022-10-03T02:47:46.419Z,97978.33
2022-10-03T02:51:22.096Z,97981.02
2022-10-03T02:54:29.541Z,97984.16
2022-10-03T02:58:10.577Z,97984.56
2022-10-03T03:01:42.680Z,97989.36
2022-10-03T03:04:50.395Z,97985.67
2022-10-03T03:08:33.035Z,97983.71
2022-10-03T03:11:53.739Z,97988.30
2022-10-03T03:15:12.328Z,97984.91
2022-10-03T03:18:28.849Z,97982.31
2022-10-03T03:21:57.700Z,97979.70
2022-10-03T03:25:18.634Z,97981.90
2022-10-03T03:28:45.713Z,97984.25
2022-10-03T03:32:12.996Z,97983.17
2022-10-03T03:35:33.236Z,97988.04
2022-10-03T03:39:11.542Z,97984.73
2022-10-03T03:42:12.985Z,97981.68
2022-10-03T03:45:41.567Z,97982.95
2022-10-03T03:48:50.988Z,97981.69
2022-10-03T03:52:04.672Z,97980.36
2022-10-03T03:55:33.647Z,97977.27
2022-10-03T03:58:44.534Z,97978.54
2022-10-03T04:02:04.008Z,97977.68
2022-10-03T04:05:31.525Z,97978.08
2022-10-03T04:09:03.131Z,97979.18
2022-10-03T04:12:24.037Z,97973.98
2022-10-03T04:15:44.030Z,97976.43
2022-10-03T04:19:18.522Z,97976.20
2022-10-03T04:22:42.916Z,97979.08
2022-10-03T04:26:15.552Z,97979.97
2022-10-03T04:29:42.009Z,97981.09
2022-10-03T04:33:16.501Z,97984.10
2022-10-03T04:36:32.973Z,97987.17
2022-10-03T04:39:49.259Z,97988.94
2022-10-03T04:42:57.771Z,97993.05
2022-10-03T04:46:05.756Z,98000.94
2022-10-03T04:49:26.167Z,98002.76
2022-10-03T04:52:58.613Z,98004.19
2022-10-03T04:56:21.833Z,98007.73
2022-10-03T04:59:35.975Z,98009.52
2022-10-03T05:02:59.377Z,98006.48
2022-10-03T05:06:19.790Z,97999.71
2022-10-03T05:09:51.142Z,98006.64
2022-10-03T05:13:04.816Z,98004.61
2022-10-03T05:16:29.625Z,98003.73
2022-10-03T05:19:37.160Z,97998.61
2022-10-03T05:23:25.608Z,97995.63
2022-10-03T05:26:44.596Z,97994.38
2022-10-03T05:30:03.135Z,97998.33
2022-10-03T05:33:22.471Z,97996.52
2022-10-03T05:36:23.954Z,97993.13
2022-10-03T05:39:32.972Z,97993.54
2022-10-03T05:42:44.356Z,97992.36
2022-10-03T05:46:03.839Z,97995.50
2022-10-03T05:49:23.726Z,97993.70
2022-10-03T05:52:43.835Z,97991.64
2022-10-03T05:56:04.081Z,97993.85
2022-10-03T05:59:26.524Z,97999.89
2022-10-03T06:02:51.295Z,98001.38
2022-10-03T06:05:58.969Z,98005.61
2022-10-03T06:09:25.263Z,98011.20
2022-10-03T06:13:05.384Z,98011.98
2022-10-03T06:16:26.004Z,98014.83
2022-10-03T06:20:08.935Z,98023.89
2022-10-03T06:23:37.368Z,98015.95
2022-10-03T06:27:15.877Z,98025.70
2022-10-03T06:30:21.875Z,98026.73
2022-10-03T06:33:48.401Z,98023.77
2022-10-03T06:36:54.656Z,98027.05
2022-10-03T06:40:22.799Z,98027.22
2022-10-03T06:44:10.880Z,98028.80
2022-10-03T06:47:28.681Z,98029.32
2022-10-03T06:50:49.806Z,98023.80
2022-10-03T06:54:17.201Z,98030.16
2022-10-03T06:57:43.529Z,98035.05
2022-10-03T07:01:08.136Z,98038.36
2022-10-03T07:04:12.731Z,98039.14
2022-10-03T07:07:40.166Z,98043.45
2022-10-03T07:11:09.086Z,98042.58
2022-10-03T07:14:55.517Z,98044.84
2022-10-03T07:17:59.577Z,98042.30
2022-10-03T07:21:14.746Z,98038.51
2022-10-03T07:24:40.875Z,98039.81
2022-10-03T07:28:20.431Z,98038.52
2022-10-03T07:31:25.193Z,98036.29
2022-10-03T07:35:12.139Z,98040.45
2022-10-03T07:38:47.178Z,98038.94
2022-10-03T07:42:13.026Z,98039.87
2022-10-03T07:45:30.621Z,98043.85
2022-10-03T07:48:41.624Z,98052.05
2022-10-03T07:52:25.325Z,98052.91
2022-10-03T07:55:48.081Z,98052.59
2022-10-03T07:58:58.742Z,98053.67
2022-10-03T08:02:15.513Z,98061.13
2022-10-03T08:05:25.000Z,98062.38
2022-10-03T08:08:34.569Z,98058.99
2022-10-03T08:12:10.219Z,98059.71
2022-10-03T08:15:39.680Z,98055.86
2022-10-03T08:19:20.289Z,98052.42
2022-10-03T08:22:57.356Z,98057.29
2022-10-03T08:26:06.946Z,98061.94
2022-10-03T08:29:17.855Z,98063.04
2022-10-03T08:32:48.737Z,98066.98
2022-10-03T08:36:27.566Z,98060.46
2022-10-03T08:39:37.945Z,98060.47
2022-10-03T08:42:55.607Z,98061.57
2022-10-03T08:46:06.016Z,98060.70
2022-10-03T08:49:41.089Z,98056.45
2022-10-03T08:53:12.302Z,98061.83
2022-10-03T08:56:20.933Z,98064.45
2022-10-03T08:59:50.532Z,98070.91
2022-10-03T09:03:33.564Z,98069.09
2022-10-03T09:07:23.658Z,98065.77
2022-10-03T09:10:35.910Z,98072.92
2022-10-03T09:13:57.153Z,98073.40
2022-10-03T09:17:06.756Z,98062.92
2022-10-03T09:20:24.987Z,98060.44
2022-10-03T09:23:44.668Z,98056.23
2022-10-03T09:27:04.735Z,98062.94
2022-10-03T09:30:22.495Z,98064.69
2022-10-03T09:33:58.008Z,98063.55
2022-10-03T09:37:31.835Z,98065.11
2022-10-03T09:41:10.432Z,98058.34
2022-10-03T09:44:33.314Z,98062.64
2022-10-03T09:47:43.883Z,98061.95
2022-10-03T09:51:03.401Z,98068.33
2022-10-03T09:54:23.271Z,98072.89
2022-10-03T09:57:46.563Z,98072.52
2022-10-03T10:01:31.960Z,98074.14
2022-10-03T10:04:57.780Z,98075.17
2022-10-03T10:08:33.554Z,98073.02
2022-10-03T10:12:00.082Z,98074.77
2022-10-03T10:15:40.963Z,98076.98
2022-10-03T10:19:20.197Z,98081.68
2022-10-03T10:22:31.903Z,98080.90
2022-10-03T10:26:17.031Z,98081.88
2022-10-03T10:30:03.041Z,98080.77
2022-10-03T10:33:44.100Z,98084.48
2022-10-03T10:37:23.022Z,98084.95
2022-10-03T10:40:52.505Z,98085.70
2022-10-03T10:44:31.970Z,98085.64
2022-10-03T10:47:49.065Z,98091.30
2022-10-03T10:51:21.537Z,98087.11
2022-10-03T10:54:35.345Z,98091.06
2022-10-03T10:58:04.480Z,98097.70
2022-10-03T11:01:36.648Z,98105.04
2022-10-03T11:05:31.914Z,98105.00
2022-10-03T11:09:11.044Z,98112.51
2022-10-03T11:12:50.124Z,98117.95
2022-10-03T11:16:13.508Z,98119.71
2022-10-03T11:19:46.280Z,98121.67
2022-10-03T11:23:07.473Z,98122.00
2022-10-03T11:26:39.076Z,98116.55
2022-10-03T11:30:06.883Z,98118.48
2022-10-03T11:33:30.013Z,98113.54
2022-10-03T11:36:55.953Z,98113.42
2022-10-03T11:40:23.819Z,98119.38
2022-10-03T11:43:52.760Z,98119.83
2022-10-03T11:47:15.749Z,98123.67
2022-10-03T11:50:32.489Z,98125.06
2022-10-03T11:54:26.397Z,98124.98
2022-10-03T11:57:36.974Z,98129.81
2022-10-03T12:00:42.126Z,98135.48
2022-10-03T12:04:18.432Z,98140.21
2022-10-03T12:07:58.568Z,98151.86
2022-10-03T12:11:08.821Z,98157.93
2022-10-03T12:14:27.027Z,98153.91
2022-10-03T12:17:36.514Z,98153.84
2022-10-03T12:21:25.857Z,98155.17
2022-10-03T12:24:34.934Z,98154.39
2022-10-03T12:27:55.015Z,98159.19
2022-10-03T12:31:01.775Z,98157.93
2022-10-03T12:34:29.638Z,98162.97
2022-10-03T12:37:40.196Z,98163.85
2022-10-03T12:40:51.507Z,98165.58
2022-10-03T12:44:11.954Z,98166.59
2022-10-03T12:47:24.268Z,98168.56
2022-10-03T12:50:54.566Z,98171.42
2022-10-03T12:54:14.957Z,98171.64
2022-10-03T12:57:32.628Z,98167.42
2022-10-03T13:00:46.900Z,98168.49
2022-10-03T13:04:07.333Z,98165.55
2022-10-03T13:07:27.862Z,98170.66
2022-10-03T13:10:34.437Z,98170.48
2022-10-03T13:13:48.148Z,98174.73
2022-10-03T13:16:59.349Z,98179.15
2022-10-03T13:20:00.917Z,98190.20
2022-10-03T13:23:06.352Z,98184.33
2022-10-03T13:26:18.153Z,98172.55
2022-10-03T13:29:39.820Z,98175.97
2022-10-03T13:32:44.651Z,98185.07
2022-10-03T13:35:58.472Z,98188.73
2022-10-03T13:39:13.047Z,98195.45
2022-10-03T13:42:14.525Z,98192.87
2022-10-03T13:45:24.551Z,98191.48
2022-10-03T13:48:26.987Z,98181.80
2022-10-03T13:51:31.521Z,98186.45
2022-10-03T13:55:00.194Z,98190.14
2022-10-03T13:58:25.826Z,98182.30
2022-10-03T14:01:38.463Z,98192.83
2022-10-03T14:04:43.263Z,98194.10
2022-10-03T14:08:08.153Z,98193.69
2022-10-03T14:11:22.169Z,98200.04
2022-10-03T14:14:24.033Z,98198.15
2022-10-03T14:17:30.970Z,98197.34
2022-10-03T14:20:37.630Z,98204.71
2022-10-03T14:23:50.066Z,98206.52
2022-10-03T14:27:08.061Z,98204.29
2022-10-03T14:30:17.491Z,98200.81
2022-10-03T14:33:31.436Z,98201.34
2022-10-03T14:36:51.725Z,98201.71
2022-10-03T14:40:01.860Z,98207.14
2022-10-03T14:43:05.943Z,98208.48
2022-10-03T14:46:09.188Z,98207.44
2022-10-03T14:49:47.180Z,98209.80
2022-10-03T14:52:38.526Z,98214.36
2022-10-03T14:55:45.326Z,98214.13
2022-10-03T14:58:49.952Z,98221.54
2022-10-03T15:01:54.150Z,98223.25
2022-10-03T15:05:01.142Z,98221.28
2022-10-03T15:08:09.450Z,98220.98
2022-10-03T15:11:14.678Z,98224.67
2022-10-03T15:14:16.485Z,98227.76
2022-10-03T15:17:22.374Z,98226.41
2022-10-03T15:20:26.289Z,98229.41
2022-10-03T15:23:33.354Z,98232.73
2022-10-03T15:26:36.343Z,98231.87
2022-10-03T15:29:40.749Z,98236.20
2022-10-03T15:32:46.093Z,98232.28
2022-10-03T15:35:50.161Z,98234.64
2022-10-03T15:38:53.570Z,98240.56
2022-10-03T15:42:00.741Z,98246.15
2022-10-03T15:45:04.955Z,98247.73
2022-10-03T15:48:12.613Z,98251.36
2022-10-03T15:51:18.788Z,98252.24
2022-10-03T15:54:21.827Z,98253.20
2022-10-03T15:57:34.222Z,98256.30
2022-10-03T16:00:37.376Z,98257.00
2022-10-03T16:03:47.119Z,98260.47
2022-10-03T16:07:12.486Z,98265.52
2022-10-03T16:10:18.009Z,98265.05
2022-10-03T16:13:28.537Z,98265.45
2022-10-03T16:16:37.772Z,98265.77
2022-10-03T16:19:51.432Z,98267.74
2022-10-03T16:22:54.751Z,98274.13
2022-10-03T16:25:58.939Z,98277.29
2022-10-03T16:29:26.751Z,98279.42
2022-10-03T16:32:30.536Z,98278.55
2022-10-03T16:35:34.465Z,98280.29
2022-10-03T16:38:37.621Z,98281.86
2022-10-03T16:41:43.686Z,98284.23
2022-10-03T16:44:45.200Z,98288.31
2022-10-03T16:48:06.906Z,98285.17
2022-10-03T16:51:15.134Z,98283.05
2022-10-03T16:54:18.459Z,98283.52
2022-10-03T16:57:25.001Z,98284.05
2022-10-03T17:00:36.895Z,98286.25
2022-10-03T17:03:46.688Z,98291.29
2022-10-03T17:06:49.427Z,98291.60
2022-10-03T17:09:56.201Z,98289.09
2022-10-03T17:13:03.362Z,98288.23
2022-10-03T17:16:27.108Z,98284.99
2022-10-03T17:19:52.075Z,98287.67
2022-10-03T17:24:13.203Z,98290.34
2022-10-03T17:27:10.498Z,98285.79
2022-10-03T17:30:31.586Z,98278.88
2022-10-03T17:34:05.040Z,98284.14
2022-10-03T17:41:00.688Z,98286.42
2022-10-03T17:44:09.995Z,98284.36
2022-10-03T17:47:34.045Z,98285.08
2022-10-03T17:50:53.951Z,98282.16
2022-10-03T17:54:01.984Z,98282.73
2022-10-03T17:57:15.050Z,98289.73
2022-10-03T18:00:22.690Z,98289.95
2022-10-03T18:03:28.248Z,98288.23
2022-10-03T18:06:35.098Z,98297.66
2022-10-03T18:09:40.496Z,98298.76
2022-10-03T18:12:42.898Z,98299.80
2022-10-03T18:15:56.759Z,98307.98
2022-10-03T18:19:21.001Z,98307.02
2022-10-03T18:22:40.538Z,98311.98
2022-10-03T18:26:18.685Z,98307.09
2022-10-03T18:29:29.355Z,98302.39
2022-10-03T18:32:32.225Z,98313.08
2022-10-03T18:35:35.348Z,98319.45
2022-10-03T18:38:39.545Z,98320.40
2022-10-03T18:41:45.014Z,98313.33
2022-10-03T18:44:46.612Z,98311.27
2022-10-03T18:47:54.434Z,98307.66
2022-10-03T18:50:58.479Z,98315.30
2022-10-03T18:54:18.525Z,98314.67
2022-10-03T18:57:26.356Z,98316.55
2022-10-03T19:00:33.558Z,98321.60
2022-10-03T19:03:39.005Z,98309.48
2022-10-03T19:06:43.194Z,98323.73
2022-10-03T19:10:02.624Z,98328.59
2022-10-03T19:13:13.240Z,98330.41
2022-10-03T19:16:16.031Z,98334.18
2022-10-03T19:19:24.560Z,98336.32
2022-10-03T19:22:39.635Z,98330.88
2022-10-03T19:25:42.913Z,98339.45
2022-10-03T19:28:48.271Z,98338.98
2022-10-03T19:31:52.174Z,98340.24
2022-10-03T19:34:58.610Z,98340.95
2022-10-03T19:38:03.255Z,98345.52
2022-10-03T19:41:16.570Z,98347.95
2022-10-03T19:44:23.320Z,98347.33
2022-10-03T19:47:33.144Z,98350.15
2022-10-03T19:50:37.169Z,98346.53
2022-10-03T19:53:44.895Z,98346.05
2022-10-03T19:56:50.119Z,98348.26
2022-10-03T19:59:53.112Z,98348.27
2022-10-03T20:02:56.211Z,98356.37
2022-10-03T20:06:00.109Z,98354.24
2022-10-03T20:09:03.473Z,98353.21
2022-10-03T20:12:08.430Z,98346.38
2022-10-03T20:15:23.894Z,98341.27
2022-10-03T20:18:31.816Z,98340.80
2022-10-03T20:21:34.762Z,98339.15
2022-10-03T20:24:39.104Z,98337.48
2022-10-03T20:27:51.395Z,98339.06
2022-10-03T20:30:55.211Z,98341.10
2022-10-03T20:33:58.930Z,98344.09
2022-10-03T20:37:01.049Z,98342.45
2022-10-03T20:40:27.620Z,98339.21
2022-10-03T20:43:41.397Z,98338.98
2022-10-03T20:47:01.692Z,98339.77
2022-10-03T20:50:23.571Z,98330.95
2022-10-03T20:53:28.499Z,98330.41
2022-10-03T20:56:37.316Z,98328.52
2022-10-03T20:59:50.934Z,98328.69
2022-10-03T21:03:14.273Z,98330.73
2022-10-03T21:06:21.628Z,98330.64
2022-10-03T21:09:46.154Z,98333.57
2022-10-03T21:12:49.701Z,98333.09
2022-10-03T21:15:53.092Z,98336.17
2022-10-03T21:18:56.969Z,98340.10
2022-10-03T21:22:01.146Z,98340.26
2022-10-03T21:25:04.825Z,98340.80
2022-10-03T21:28:18.352Z,98345.20
2022-10-03T21:31:27.618Z,98340.73
2022-10-03T21:34:46.341Z,98344.18
2022-10-03T21:37:59.719Z,98347.64
2022-10-03T21:41:03.028Z,98343.80
2022-10-03T21:44:11.216Z,98351.27
2022-10-03T21:47:15.476Z,98342.05
2022-10-03T21:50:19.599Z,98337.58
2022-10-03T21:53:35.929Z,98336.79
2022-10-03T21:56:52.395Z,98338.91
2022-10-03T21:59:59.895Z,98336.40
2022-10-03T22:03:01.278Z,98336.08
2022-10-03T22:06:02.664Z,98335.05
2022-10-03T22:09:10.538Z,98334.91
2022-10-03T22:12:12.977Z,98329.09
2022-10-03T22:15:36.957Z,98331.92
2022-10-03T22:18:59.576Z,98330.83
2022-10-03T22:22:19.862Z,98328.92
2022-10-03T22:25:28.799Z,98332.77
2022-10-03T22:28:30.239Z,98330.02
2022-10-03T22:31:36.163Z,98330.89
2022-10-03T22:34:56.504Z,98335.21
2022-10-03T22:37:59.126Z,98332.86
2022-10-03T22:41:02.636Z,98330.97
2022-10-03T22:44:06.400Z,98330.64
2022-10-03T22:47:14.759Z,98330.42
2022-10-03T22:50:18.986Z,98326.88
2022-10-03T22:53:22.926Z,98327.27
2022-10-03T22:56:37.533Z,98321.68
2022-10-03T22:59:45.314Z,98323.96
2022-10-03T23:02:50.629Z,98316.81
2022-10-03T23:06:04.433Z,98316.66
2022-10-03T23:09:08.413Z,98316.75
2022-10-03T23:12:10.860Z,98318.54
2022-10-03T23:15:16.738Z,98321.23
2022-10-03T23:18:37.045Z,98319.73
2022-10-03T23:21:46.003Z,98319.10
2022-10-03T23:24:52.840Z,98320.20
2022-10-03T23:28:05.103Z,98318.63
2022-10-03T23:31:06.825Z,98316.36
2022-10-03T23:34:09.328Z,98316.90
2022-10-03T23:37:10.718Z,98317.37
2022-10-03T23:40:32.353Z,98317.20
2022-10-03T23:43:33.755Z,98312.96
2022-10-03T23:46:35.185Z,98316.34
2022-10-03T23:49:37.311Z,98313.59
2022-10-03T23:52:46.334Z,98313.98
2022-10-03T23:55:47.766Z,98306.67
2022-10-03T23:59:01.396Z,98308.71
